sensor_id;sensor_type;location;lat;lon;timestamp;temperature;humidity
9837;DHT22;4957;51.412;6.724;2023-09-07T00:01:26;21.10;96.70
9837;DHT22;4957;51.412;6.724;2023-09-07T00:03:52;21.10;96.60
9837;DHT22;4957;51.412;6.724;2023-09-07T00:06:18;21.10;96.80
9837;DHT22;4957;51.412;6.724;2023-09-07T00:08:44;21.00;96.90
9837;DHT22;4957;51.412;6.724;2023-09-07T00:11:10;21.00;96.80
9837;DHT22;4957;51.412;6.724;2023-09-07T00:13:36;21.00;96.80
9837;DHT22;4957;51.412;6.724;2023-09-07T00:16:03;21.00;97.00
9837;DHT22;4957;51.412;6.724;2023-09-07T00:18:30;21.00;97.00
9837;DHT22;4957;51.412;6.724;2023-09-07T00:20:55;20.90;96.90
9837;DHT22;4957;51.412;6.724;2023-09-07T00:23:21;20.90;97.30
9837;DHT22;4957;51.412;6.724;2023-09-07T00:25:48;20.90;97.20
9837;DHT22;4957;51.412;6.724;2023-09-07T00:28:14;20.80;97.20
9837;DHT22;4957;51.412;6.724;2023-09-07T00:30:39;20.80;97.40
9837;DHT22;4957;51.412;6.724;2023-09-07T00:33:07;20.70;97.40
9837;DHT22;4957;51.412;6.724;2023-09-07T00:35:33;20.70;97.40
9837;DHT22;4957;51.412;6.724;2023-09-07T00:37:59;20.70;97.40
9837;DHT22;4957;51.412;6.724;2023-09-07T00:40:25;20.70;97.40
9837;DHT22;4957;51.412;6.724;2023-09-07T00:42:52;20.60;97.40
9837;DHT22;4957;51.412;6.724;2023-09-07T00:45:18;20.60;97.40
9837;DHT22;4957;51.412;6.724;2023-09-07T00:47:44;20.60;97.50
9837;DHT22;4957;51.412;6.724;2023-09-07T00:50:10;20.60;97.40
9837;DHT22;4957;51.412;6.724;2023-09-07T00:52:42;20.50;97.40
9837;DHT22;4957;51.412;6.724;2023-09-07T00:55:09;20.50;97.60
9837;DHT22;4957;51.412;6.724;2023-09-07T00:57:36;20.50;97.60
9837;DHT22;4957;51.412;6.724;2023-09-07T01:00:05;20.40;97.50
9837;DHT22;4957;51.412;6.724;2023-09-07T01:02:33;20.40;97.50
9837;DHT22;4957;51.412;6.724;2023-09-07T01:04:59;20.30;97.70
9837;DHT22;4957;51.412;6.724;2023-09-07T01:07:30;20.30;97.60
9837;DHT22;4957;51.412;6.724;2023-09-07T01:09:59;20.30;97.70
9837;DHT22;4957;51.412;6.724;2023-09-07T01:12:26;20.30;97.70
9837;DHT22;4957;51.412;6.724;2023-09-07T01:14:51;20.30;97.70
9837;DHT22;4957;51.412;6.724;2023-09-07T01:17:18;20.20;97.70
9837;DHT22;4957;51.412;6.724;2023-09-07T01:19:50;20.20;97.70
9837;DHT22;4957;51.412;6.724;2023-09-07T01:22:20;20.20;97.80
9837;DHT22;4957;51.412;6.724;2023-09-07T01:24:50;20.10;97.80
9837;DHT22;4957;51.412;6.724;2023-09-07T01:27:18;20.10;97.80
9837;DHT22;4957;51.412;6.724;2023-09-07T01:29:44;20.10;98.00
9837;DHT22;4957;51.412;6.724;2023-09-07T01:32:10;20.00;97.90
9837;DHT22;4957;51.412;6.724;2023-09-07T01:34:36;20.00;98.00
9837;DHT22;4957;51.412;6.724;2023-09-07T01:37:02;20.00;97.90
9837;DHT22;4957;51.412;6.724;2023-09-07T01:39:28;20.00;97.90
9837;DHT22;4957;51.412;6.724;2023-09-07T01:41:53;19.90;98.00
9837;DHT22;4957;51.412;6.724;2023-09-07T01:44:19;19.90;97.90
9837;DHT22;4957;51.412;6.724;2023-09-07T01:46:45;19.80;97.80
9837;DHT22;4957;51.412;6.724;2023-09-07T01:49:11;19.80;98.00
9837;DHT22;4957;51.412;6.724;2023-09-07T01:51:36;19.80;97.90
9837;DHT22;4957;51.412;6.724;2023-09-07T01:54:02;19.80;98.00
9837;DHT22;4957;51.412;6.724;2023-09-07T01:56:28;19.80;98.10
9837;DHT22;4957;51.412;6.724;2023-09-07T01:58:54;19.70;98.00
9837;DHT22;4957;51.412;6.724;2023-09-07T02:01:29;19.70;98.10
9837;DHT22;4957;51.412;6.724;2023-09-07T02:03:55;19.70;98.20
9837;DHT22;4957;51.412;6.724;2023-09-07T02:06:21;19.70;98.00
9837;DHT22;4957;51.412;6.724;2023-09-07T02:08:47;19.60;98.10
9837;DHT22;4957;51.412;6.724;2023-09-07T02:11:14;19.60;98.10
9837;DHT22;4957;51.412;6.724;2023-09-07T02:13:43;19.60;98.00
9837;DHT22;4957;51.412;6.724;2023-09-07T02:16:09;19.50;98.20
9837;DHT22;4957;51.412;6.724;2023-09-07T02:18:35;19.50;98.20
9837;DHT22;4957;51.412;6.724;2023-09-07T02:21:05;19.50;98.20
9837;DHT22;4957;51.412;6.724;2023-09-07T02:23:31;19.40;98.40
9837;DHT22;4957;51.412;6.724;2023-09-07T02:25:58;19.40;98.20
9837;DHT22;4957;51.412;6.724;2023-09-07T02:28:24;19.40;98.30
9837;DHT22;4957;51.412;6.724;2023-09-07T02:30:51;19.40;98.40
9837;DHT22;4957;51.412;6.724;2023-09-07T02:33:17;19.40;98.50
9837;DHT22;4957;51.412;6.724;2023-09-07T02:35:43;19.40;98.60
9837;DHT22;4957;51.412;6.724;2023-09-07T02:38:08;19.30;98.70
9837;DHT22;4957;51.412;6.724;2023-09-07T02:40:40;19.30;98.70
9837;DHT22;4957;51.412;6.724;2023-09-07T02:43:06;19.30;98.90
9837;DHT22;4957;51.412;6.724;2023-09-07T02:45:32;19.30;98.80
9837;DHT22;4957;51.412;6.724;2023-09-07T02:47:57;19.30;98.90
9837;DHT22;4957;51.412;6.724;2023-09-07T02:50:23;19.30;98.90
9837;DHT22;4957;51.412;6.724;2023-09-07T02:52:48;19.20;98.80
9837;DHT22;4957;51.412;6.724;2023-09-07T02:55:14;19.20;98.90
9837;DHT22;4957;51.412;6.724;2023-09-07T02:57:40;19.20;98.70
9837;DHT22;4957;51.412;6.724;2023-09-07T03:00:07;19.10;98.70
9837;DHT22;4957;51.412;6.724;2023-09-07T03:02:36;19.10;98.70
9837;DHT22;4957;51.412;6.724;2023-09-07T03:05:02;19.10;98.60
9837;DHT22;4957;51.412;6.724;2023-09-07T03:07:33;19.00;98.60
9837;DHT22;4957;51.412;6.724;2023-09-07T03:09:59;19.00;98.80
9837;DHT22;4957;51.412;6.724;2023-09-07T03:12:25;19.00;98.70
9837;DHT22;4957;51.412;6.724;2023-09-07T03:14:51;18.90;98.80
9837;DHT22;4957;51.412;6.724;2023-09-07T03:17:17;19.00;98.80
9837;DHT22;4957;51.412;6.724;2023-09-07T03:19:43;18.90;98.80
9837;DHT22;4957;51.412;6.724;2023-09-07T03:22:09;18.90;98.90
9837;DHT22;4957;51.412;6.724;2023-09-07T03:24:35;18.90;98.90
9837;DHT22;4957;51.412;6.724;2023-09-07T03:27:01;18.80;99.00
9837;DHT22;4957;51.412;6.724;2023-09-07T03:29:26;18.90;99.00
9837;DHT22;4957;51.412;6.724;2023-09-07T03:31:52;18.80;99.00
9837;DHT22;4957;51.412;6.724;2023-09-07T03:34:18;18.80;99.10
9837;DHT22;4957;51.412;6.724;2023-09-07T03:36:45;18.80;99.50
9837;DHT22;4957;51.412;6.724;2023-09-07T03:39:10;18.80;99.20
9837;DHT22;4957;51.412;6.724;2023-09-07T03:41:36;18.70;99.10
9837;DHT22;4957;51.412;6.724;2023-09-07T03:44:02;18.70;99.20
9837;DHT22;4957;51.412;6.724;2023-09-07T03:46:27;18.70;99.20
9837;DHT22;4957;51.412;6.724;2023-09-07T03:48:53;18.60;99.00
9837;DHT22;4957;51.412;6.724;2023-09-07T03:51:19;18.60;98.80
9837;DHT22;4957;51.412;6.724;2023-09-07T03:53:44;18.60;99.20
9837;DHT22;4957;51.412;6.724;2023-09-07T03:56:11;18.60;99.30
9837;DHT22;4957;51.412;6.724;2023-09-07T03:58:36;18.50;99.20
9837;DHT22;4957;51.412;6.724;2023-09-07T04:01:02;18.50;99.10
9837;DHT22;4957;51.412;6.724;2023-09-07T04:03:28;18.50;99.20
9837;DHT22;4957;51.412;6.724;2023-09-07T04:05:53;18.40;99.30
9837;DHT22;4957;51.412;6.724;2023-09-07T04:08:19;18.40;99.30
9837;DHT22;4957;51.412;6.724;2023-09-07T04:10:45;18.40;99.30
9837;DHT22;4957;51.412;6.724;2023-09-07T04:13:10;18.30;99.30
9837;DHT22;4957;51.412;6.724;2023-09-07T04:15:45;18.30;99.40
9837;DHT22;4957;51.412;6.724;2023-09-07T04:18:12;18.30;99.50
9837;DHT22;4957;51.412;6.724;2023-09-07T04:20:38;18.30;99.30
9837;DHT22;4957;51.412;6.724;2023-09-07T04:23:05;18.20;99.40
9837;DHT22;4957;51.412;6.724;2023-09-07T04:25:31;18.20;99.50
9837;DHT22;4957;51.412;6.724;2023-09-07T04:27:58;18.20;99.60
9837;DHT22;4957;51.412;6.724;2023-09-07T04:30:24;18.20;99.50
9837;DHT22;4957;51.412;6.724;2023-09-07T04:32:49;18.20;99.50
9837;DHT22;4957;51.412;6.724;2023-09-07T04:35:15;18.10;99.50
9837;DHT22;4957;51.412;6.724;2023-09-07T04:37:44;18.10;99.60
9837;DHT22;4957;51.412;6.724;2023-09-07T04:40:11;18.10;99.80
9837;DHT22;4957;51.412;6.724;2023-09-07T04:42:37;18.10;99.60
9837;DHT22;4957;51.412;6.724;2023-09-07T04:45:07;18.00;99.70
9837;DHT22;4957;51.412;6.724;2023-09-07T04:47:34;18.10;99.80
9837;DHT22;4957;51.412;6.724;2023-09-07T04:49:59;18.00;99.60
9837;DHT22;4957;51.412;6.724;2023-09-07T04:52:25;18.00;99.60
9837;DHT22;4957;51.412;6.724;2023-09-07T04:54:52;18.00;99.70
9837;DHT22;4957;51.412;6.724;2023-09-07T04:57:18;17.90;99.70
9837;DHT22;4957;51.412;6.724;2023-09-07T04:59:43;17.90;99.70
9837;DHT22;4957;51.412;6.724;2023-09-07T05:02:10;17.90;99.90
9837;DHT22;4957;51.412;6.724;2023-09-07T05:04:37;17.90;99.90
9837;DHT22;4957;51.412;6.724;2023-09-07T05:07:03;17.80;99.90
9837;DHT22;4957;51.412;6.724;2023-09-07T05:09:29;17.80;99.90
9837;DHT22;4957;51.412;6.724;2023-09-07T05:11:55;17.80;99.90
9837;DHT22;4957;51.412;6.724;2023-09-07T05:14:23;17.80;99.90
9837;DHT22;4957;51.412;6.724;2023-09-07T05:16:48;17.80;99.90
9837;DHT22;4957;51.412;6.724;2023-09-07T05:19:14;17.80;99.90
9837;DHT22;4957;51.412;6.724;2023-09-07T05:21:40;17.80;99.90
9837;DHT22;4957;51.412;6.724;2023-09-07T05:24:05;17.80;99.90
9837;DHT22;4957;51.412;6.724;2023-09-07T05:26:31;17.70;99.90
9837;DHT22;4957;51.412;6.724;2023-09-07T05:28:57;17.70;99.90
9837;DHT22;4957;51.412;6.724;2023-09-07T05:31:22;17.70;99.90
9837;DHT22;4957;51.412;6.724;2023-09-07T05:33:48;17.70;99.90
9837;DHT22;4957;51.412;6.724;2023-09-07T05:36:14;17.70;99.90
9837;DHT22;4957;51.412;6.724;2023-09-07T05:38:39;17.70;99.90
9837;DHT22;4957;51.412;6.724;2023-09-07T05:41:05;17.70;99.90
9837;DHT22;4957;51.412;6.724;2023-09-07T05:43:31;17.70;99.90
9837;DHT22;4957;51.412;6.724;2023-09-07T05:45:56;17.70;99.90
9837;DHT22;4957;51.412;6.724;2023-09-07T05:48:22;17.70;99.90
9837;DHT22;4957;51.412;6.724;2023-09-07T05:50:48;17.80;99.90
9837;DHT22;4957;51.412;6.724;2023-09-07T05:53:14;17.70;99.90
9837;DHT22;4957;51.412;6.724;2023-09-07T05:55:39;17.80;99.90
9837;DHT22;4957;51.412;6.724;2023-09-07T05:58:07;17.80;99.90
9837;DHT22;4957;51.412;6.724;2023-09-07T06:00:34;17.80;99.90
9837;DHT22;4957;51.412;6.724;2023-09-07T06:03:01;17.90;99.90
9837;DHT22;4957;51.412;6.724;2023-09-07T06:05:27;17.90;99.90
9837;DHT22;4957;51.412;6.724;2023-09-07T06:07:53;17.90;99.90
9837;DHT22;4957;51.412;6.724;2023-09-07T06:10:18;18.00;99.90
9837;DHT22;4957;51.412;6.724;2023-09-07T06:12:45;18.00;99.90
9837;DHT22;4957;51.412;6.724;2023-09-07T06:15:10;18.10;99.90
9837;DHT22;4957;51.412;6.724;2023-09-07T06:17:36;18.20;99.90
9837;DHT22;4957;51.412;6.724;2023-09-07T06:20:02;18.20;99.90
9837;DHT22;4957;51.412;6.724;2023-09-07T06:22:28;18.30;99.90
9837;DHT22;4957;51.412;6.724;2023-09-07T06:24:54;18.40;99.90
9837;DHT22;4957;51.412;6.724;2023-09-07T06:27:19;18.50;99.90
9837;DHT22;4957;51.412;6.724;2023-09-07T06:29:45;18.60;99.90
9837;DHT22;4957;51.412;6.724;2023-09-07T06:32:11;18.70;99.90
9837;DHT22;4957;51.412;6.724;2023-09-07T06:34:37;18.70;99.90
9837;DHT22;4957;51.412;6.724;2023-09-07T06:37:03;18.90;99.90
9837;DHT22;4957;51.412;6.724;2023-09-07T06:39:28;19.00;99.90
9837;DHT22;4957;51.412;6.724;2023-09-07T06:41:54;19.10;99.90
9837;DHT22;4957;51.412;6.724;2023-09-07T06:44:20;19.20;99.90
9837;DHT22;4957;51.412;6.724;2023-09-07T06:46:45;19.30;99.90
9837;DHT22;4957;51.412;6.724;2023-09-07T06:49:12;19.50;99.90
9837;DHT22;4957;51.412;6.724;2023-09-07T06:51:37;19.60;99.90
9837;DHT22;4957;51.412;6.724;2023-09-07T06:54:03;19.70;99.90
9837;DHT22;4957;51.412;6.724;2023-09-07T06:56:29;19.80;99.90
9837;DHT22;4957;51.412;6.724;2023-09-07T06:58:56;20.00;99.90
9837;DHT22;4957;51.412;6.724;2023-09-07T07:01:22;20.10;99.90
9837;DHT22;4957;51.412;6.724;2023-09-07T07:03:48;20.30;99.90
9837;DHT22;4957;51.412;6.724;2023-09-07T07:06:14;20.40;99.90
9837;DHT22;4957;51.412;6.724;2023-09-07T07:08:40;20.60;99.90
9837;DHT22;4957;51.412;6.724;2023-09-07T07:11:06;20.80;99.90
9837;DHT22;4957;51.412;6.724;2023-09-07T07:13:31;21.00;99.90
9837;DHT22;4957;51.412;6.724;2023-09-07T07:15:57;21.10;99.90
9837;DHT22;4957;51.412;6.724;2023-09-07T07:18:22;21.30;99.90
9837;DHT22;4957;51.412;6.724;2023-09-07T07:20:48;21.50;99.90
9837;DHT22;4957;51.412;6.724;2023-09-07T07:23:16;21.70;99.90
9837;DHT22;4957;51.412;6.724;2023-09-07T07:25:41;21.90;99.90
9837;DHT22;4957;51.412;6.724;2023-09-07T07:28:07;22.10;99.90
9837;DHT22;4957;51.412;6.724;2023-09-07T07:30:38;22.20;99.90
9837;DHT22;4957;51.412;6.724;2023-09-07T07:33:05;22.40;99.90
9837;DHT22;4957;51.412;6.724;2023-09-07T07:35:34;22.60;99.90
9837;DHT22;4957;51.412;6.724;2023-09-07T07:38:01;22.80;99.90
9837;DHT22;4957;51.412;6.724;2023-09-07T07:40:27;23.00;99.90
9837;DHT22;4957;51.412;6.724;2023-09-07T07:42:53;23.20;99.90
9837;DHT22;4957;51.412;6.724;2023-09-07T07:45:19;23.30;99.90
9837;DHT22;4957;51.412;6.724;2023-09-07T07:47:51;23.50;99.90
9837;DHT22;4957;51.412;6.724;2023-09-07T07:50:18;23.70;99.90
9837;DHT22;4957;51.412;6.724;2023-09-07T07:52:44;23.90;99.90
9837;DHT22;4957;51.412;6.724;2023-09-07T07:55:10;24.10;99.90
9837;DHT22;4957;51.412;6.724;2023-09-07T07:57:36;24.30;99.90
9837;DHT22;4957;51.412;6.724;2023-09-07T08:00:03;24.50;99.90
9837;DHT22;4957;51.412;6.724;2023-09-07T08:02:30;24.70;99.90
9837;DHT22;4957;51.412;6.724;2023-09-07T08:04:56;24.90;99.50
9837;DHT22;4957;51.412;6.724;2023-09-07T08:07:22;25.10;99.40
9837;DHT22;4957;51.412;6.724;2023-09-07T08:09:48;25.30;98.90
9837;DHT22;4957;51.412;6.724;2023-09-07T08:12:13;25.50;98.40
9837;DHT22;4957;51.412;6.724;2023-09-07T08:14:39;25.70;97.90
9837;DHT22;4957;51.412;6.724;2023-09-07T08:17:05;25.90;97.40
9837;DHT22;4957;51.412;6.724;2023-09-07T08:19:31;26.10;96.90
9837;DHT22;4957;51.412;6.724;2023-09-07T08:21:59;26.40;96.50
9837;DHT22;4957;51.412;6.724;2023-09-07T08:24:25;26.50;95.90
9837;DHT22;4957;51.412;6.724;2023-09-07T08:26:50;26.70;95.70
9837;DHT22;4957;51.412;6.724;2023-09-07T08:29:17;26.90;95.20
9837;DHT22;4957;51.412;6.724;2023-09-07T08:31:42;27.10;94.80
9837;DHT22;4957;51.412;6.724;2023-09-07T08:34:10;27.40;94.20
9837;DHT22;4957;51.412;6.724;2023-09-07T08:36:40;27.60;93.60
9837;DHT22;4957;51.412;6.724;2023-09-07T08:39:07;27.90;93.00
9837;DHT22;4957;51.412;6.724;2023-09-07T08:41:42;28.10;92.40
9837;DHT22;4957;51.412;6.724;2023-09-07T08:44:17;28.40;91.90
9837;DHT22;4957;51.412;6.724;2023-09-07T08:46:43;28.60;91.50
9837;DHT22;4957;51.412;6.724;2023-09-07T08:49:11;28.80;91.30
9837;DHT22;4957;51.412;6.724;2023-09-07T08:51:37;28.90;91.00
9837;DHT22;4957;51.412;6.724;2023-09-07T08:54:07;29.10;90.60
9837;DHT22;4957;51.412;6.724;2023-09-07T08:56:33;29.30;90.30
9837;DHT22;4957;51.412;6.724;2023-09-07T08:58:59;29.50;89.80
9837;DHT22;4957;51.412;6.724;2023-09-07T09:01:26;29.70;88.40
9837;DHT22;4957;51.412;6.724;2023-09-07T09:03:54;29.80;86.90
9837;DHT22;4957;51.412;6.724;2023-09-07T09:06:21;30.00;85.80
9837;DHT22;4957;51.412;6.724;2023-09-07T09:08:54;30.20;84.80
9837;DHT22;4957;51.412;6.724;2023-09-07T09:11:21;30.40;83.20
9837;DHT22;4957;51.412;6.724;2023-09-07T09:13:47;30.60;81.40
9837;DHT22;4957;51.412;6.724;2023-09-07T09:16:14;30.80;79.50
9837;DHT22;4957;51.412;6.724;2023-09-07T09:18:52;31.00;77.80
9837;DHT22;4957;51.412;6.724;2023-09-07T09:21:19;31.30;76.10
9837;DHT22;4957;51.412;6.724;2023-09-07T09:23:49;31.40;75.00
9837;DHT22;4957;51.412;6.724;2023-09-07T09:26:15;31.70;73.90
9837;DHT22;4957;51.412;6.724;2023-09-07T09:28:42;31.90;73.60
9837;DHT22;4957;51.412;6.724;2023-09-07T09:31:09;32.10;72.60
9837;DHT22;4957;51.412;6.724;2023-09-07T09:33:38;32.20;71.90
9837;DHT22;4957;51.412;6.724;2023-09-07T09:36:06;32.30;70.50
9837;DHT22;4957;51.412;6.724;2023-09-07T09:38:32;32.40;69.50
9837;DHT22;4957;51.412;6.724;2023-09-07T09:40:59;32.50;68.60
9837;DHT22;4957;51.412;6.724;2023-09-07T09:43:27;32.60;67.60
9837;DHT22;4957;51.412;6.724;2023-09-07T09:45:53;32.70;66.40
9837;DHT22;4957;51.412;6.724;2023-09-07T09:48:20;32.80;65.60
9837;DHT22;4957;51.412;6.724;2023-09-07T09:50:49;32.90;64.20
9837;DHT22;4957;51.412;6.724;2023-09-07T09:53:19;33.00;64.30
9837;DHT22;4957;51.412;6.724;2023-09-07T09:55:47;33.00;63.30
9837;DHT22;4957;51.412;6.724;2023-09-07T09:58:13;33.20;61.60
9837;DHT22;4957;51.412;6.724;2023-09-07T10:00:53;33.30;61.00
9837;DHT22;4957;51.412;6.724;2023-09-07T10:03:24;33.30;60.20
9837;DHT22;4957;51.412;6.724;2023-09-07T10:05:52;33.30;60.20
9837;DHT22;4957;51.412;6.724;2023-09-07T10:08:19;33.30;59.60
9837;DHT22;4957;51.412;6.724;2023-09-07T10:10:49;33.30;59.40
9837;DHT22;4957;51.412;6.724;2023-09-07T10:13:16;33.30;59.00
9837;DHT22;4957;51.412;6.724;2023-09-07T10:15:42;33.30;58.80
9837;DHT22;4957;51.412;6.724;2023-09-07T10:18:13;33.30;59.00
9837;DHT22;4957;51.412;6.724;2023-09-07T10:20:54;33.30;58.20
9837;DHT22;4957;51.412;6.724;2023-09-07T10:23:22;33.30;57.90
9837;DHT22;4957;51.412;6.724;2023-09-07T10:25:53;33.30;57.90
9837;DHT22;4957;51.412;6.724;2023-09-07T10:28:25;33.30;57.90
9837;DHT22;4957;51.412;6.724;2023-09-07T10:31:07;33.30;58.00
9837;DHT22;4957;51.412;6.724;2023-09-07T10:33:34;33.40;57.80
9837;DHT22;4957;51.412;6.724;2023-09-07T10:36:03;33.40;57.70
9837;DHT22;4957;51.412;6.724;2023-09-07T10:38:34;33.50;57.80
9837;DHT22;4957;51.412;6.724;2023-09-07T10:41:02;33.50;57.60
9837;DHT22;4957;51.412;6.724;2023-09-07T10:43:29;33.50;57.70
9837;DHT22;4957;51.412;6.724;2023-09-07T10:45:56;33.60;57.70
9837;DHT22;4957;51.412;6.724;2023-09-07T10:48:23;33.70;57.50
9837;DHT22;4957;51.412;6.724;2023-09-07T10:50:49;33.70;57.40
9837;DHT22;4957;51.412;6.724;2023-09-07T10:53:25;33.80;57.30
9837;DHT22;4957;51.412;6.724;2023-09-07T10:55:52;33.80;56.60
9837;DHT22;4957;51.412;6.724;2023-09-07T10:58:35;33.90;56.70
9837;DHT22;4957;51.412;6.724;2023-09-07T11:01:02;34.00;56.10
9837;DHT22;4957;51.412;6.724;2023-09-07T11:03:31;34.00;56.40
9837;DHT22;4957;51.412;6.724;2023-09-07T11:06:17;34.10;56.00
9837;DHT22;4957;51.412;6.724;2023-09-07T11:08:45;34.10;55.30
9837;DHT22;4957;51.412;6.724;2023-09-07T11:11:12;34.10;55.70
9837;DHT22;4957;51.412;6.724;2023-09-07T11:13:38;34.20;55.40
9837;DHT22;4957;51.412;6.724;2023-09-07T11:16:07;34.20;55.30
9837;DHT22;4957;51.412;6.724;2023-09-07T11:18:34;34.20;55.00
9837;DHT22;4957;51.412;6.724;2023-09-07T11:21:02;34.20;54.80
9837;DHT22;4957;51.412;6.724;2023-09-07T11:23:32;34.20;54.50
9837;DHT22;4957;51.412;6.724;2023-09-07T11:26:07;34.20;54.20
9837;DHT22;4957;51.412;6.724;2023-09-07T11:28:33;34.20;54.20
9837;DHT22;4957;51.412;6.724;2023-09-07T11:30:59;34.20;55.50
9837;DHT22;4957;51.412;6.724;2023-09-07T11:33:26;34.10;53.90
9837;DHT22;4957;51.412;6.724;2023-09-07T11:35:53;34.20;53.90
9837;DHT22;4957;51.412;6.724;2023-09-07T11:38:21;34.20;53.70
9837;DHT22;4957;51.412;6.724;2023-09-07T11:40:47;34.10;52.80
9837;DHT22;4957;51.412;6.724;2023-09-07T11:43:17;34.10;53.40
9837;DHT22;4957;51.412;6.724;2023-09-07T11:45:46;34.00;53.40
9837;DHT22;4957;51.412;6.724;2023-09-07T11:48:12;33.90;53.50
9837;DHT22;4957;51.412;6.724;2023-09-07T11:50:38;33.90;52.90
9837;DHT22;4957;51.412;6.724;2023-09-07T11:53:05;33.80;53.60
9837;DHT22;4957;51.412;6.724;2023-09-07T11:55:31;33.80;53.60
9837;DHT22;4957;51.412;6.724;2023-09-07T11:57:57;33.70;53.40
9837;DHT22;4957;51.412;6.724;2023-09-07T12:00:23;33.60;53.60
9837;DHT22;4957;51.412;6.724;2023-09-07T12:02:49;33.50;53.40
9837;DHT22;4957;51.412;6.724;2023-09-07T12:05:15;33.50;53.10
9837;DHT22;4957;51.412;6.724;2023-09-07T12:07:41;33.40;53.40
9837;DHT22;4957;51.412;6.724;2023-09-07T12:10:11;33.30;53.50
9837;DHT22;4957;51.412;6.724;2023-09-07T12:12:37;33.30;53.00
9837;DHT22;4957;51.412;6.724;2023-09-07T12:15:04;33.20;53.30
9837;DHT22;4957;51.412;6.724;2023-09-07T12:17:30;33.20;52.90
9837;DHT22;4957;51.412;6.724;2023-09-07T12:19:56;33.10;53.10
9837;DHT22;4957;51.412;6.724;2023-09-07T12:22:22;33.00;53.00
9837;DHT22;4957;51.412;6.724;2023-09-07T12:24:48;32.90;53.30
9837;DHT22;4957;51.412;6.724;2023-09-07T12:27:14;32.90;53.60
9837;DHT22;4957;51.412;6.724;2023-09-07T12:29:40;32.80;53.10
9837;DHT22;4957;51.412;6.724;2023-09-07T12:32:06;32.70;53.50
9837;DHT22;4957;51.412;6.724;2023-09-07T12:34:31;32.60;53.50
9837;DHT22;4957;51.412;6.724;2023-09-07T12:36:57;32.60;53.30
9837;DHT22;4957;51.412;6.724;2023-09-07T12:39:23;32.50;53.30
9837;DHT22;4957;51.412;6.724;2023-09-07T12:41:48;32.40;53.40
9837;DHT22;4957;51.412;6.724;2023-09-07T12:44:14;32.30;53.50
9837;DHT22;4957;51.412;6.724;2023-09-07T12:46:39;32.30;54.00
9837;DHT22;4957;51.412;6.724;2023-09-07T12:49:05;32.20;54.40
9837;DHT22;4957;51.412;6.724;2023-09-07T12:51:31;32.20;54.60
9837;DHT22;4957;51.412;6.724;2023-09-07T12:53:57;32.20;55.10
9837;DHT22;4957;51.412;6.724;2023-09-07T12:56:22;32.10;55.40
9837;DHT22;4957;51.412;6.724;2023-09-07T12:58:48;32.10;55.30
9837;DHT22;4957;51.412;6.724;2023-09-07T13:01:15;32.00;55.70
9837;DHT22;4957;51.412;6.724;2023-09-07T13:03:41;32.00;55.50
9837;DHT22;4957;51.412;6.724;2023-09-07T13:06:07;31.90;55.20
9837;DHT22;4957;51.412;6.724;2023-09-07T13:08:34;31.80;55.30
9837;DHT22;4957;51.412;6.724;2023-09-07T13:11:00;31.80;54.60
9837;DHT22;4957;51.412;6.724;2023-09-07T13:13:26;31.70;54.70
9837;DHT22;4957;51.412;6.724;2023-09-07T13:15:55;31.60;54.90
9837;DHT22;4957;51.412;6.724;2023-09-07T13:18:21;31.50;55.00
9837;DHT22;4957;51.412;6.724;2023-09-07T13:20:47;31.50;55.20
9837;DHT22;4957;51.412;6.724;2023-09-07T13:23:15;31.40;55.40
9837;DHT22;4957;51.412;6.724;2023-09-07T13:25:41;31.40;56.10
9837;DHT22;4957;51.412;6.724;2023-09-07T13:28:07;31.40;56.50
9837;DHT22;4957;51.412;6.724;2023-09-07T13:30:32;31.30;56.70
9837;DHT22;4957;51.412;6.724;2023-09-07T13:32:58;31.30;56.70
9837;DHT22;4957;51.412;6.724;2023-09-07T13:35:25;31.30;56.70
9837;DHT22;4957;51.412;6.724;2023-09-07T13:37:51;31.30;55.70
9837;DHT22;4957;51.412;6.724;2023-09-07T13:40:16;31.20;55.40
9837;DHT22;4957;51.412;6.724;2023-09-07T13:42:45;31.20;55.40
9837;DHT22;4957;51.412;6.724;2023-09-07T13:45:11;31.10;54.90
9837;DHT22;4957;51.412;6.724;2023-09-07T13:47:37;31.00;55.20
9837;DHT22;4957;51.412;6.724;2023-09-07T13:50:04;31.00;55.20
9837;DHT22;4957;51.412;6.724;2023-09-07T13:52:30;30.90;55.50
9837;DHT22;4957;51.412;6.724;2023-09-07T13:54:55;30.90;56.00
9837;DHT22;4957;51.412;6.724;2023-09-07T13:57:21;30.80;55.80
9837;DHT22;4957;51.412;6.724;2023-09-07T13:59:47;30.80;56.30
9837;DHT22;4957;51.412;6.724;2023-09-07T14:02:12;30.70;56.30
9837;DHT22;4957;51.412;6.724;2023-09-07T14:04:38;30.70;56.30
9837;DHT22;4957;51.412;6.724;2023-09-07T14:07:04;30.60;56.30
9837;DHT22;4957;51.412;6.724;2023-09-07T14:09:29;30.60;56.40
9837;DHT22;4957;51.412;6.724;2023-09-07T14:11:55;30.60;56.40
9837;DHT22;4957;51.412;6.724;2023-09-07T14:14:21;30.50;56.60
9837;DHT22;4957;51.412;6.724;2023-09-07T14:16:47;30.40;56.90
9837;DHT22;4957;51.412;6.724;2023-09-07T14:19:12;30.40;57.00
9837;DHT22;4957;51.412;6.724;2023-09-07T14:21:38;30.40;57.10
9837;DHT22;4957;51.412;6.724;2023-09-07T14:24:04;30.40;57.20
9837;DHT22;4957;51.412;6.724;2023-09-07T14:26:30;30.30;57.30
9837;DHT22;4957;51.412;6.724;2023-09-07T14:28:56;30.30;57.50
9837;DHT22;4957;51.412;6.724;2023-09-07T14:31:21;30.30;57.90
9837;DHT22;4957;51.412;6.724;2023-09-07T14:33:47;30.30;57.80
9837;DHT22;4957;51.412;6.724;2023-09-07T14:36:14;30.20;58.00
9837;DHT22;4957;51.412;6.724;2023-09-07T14:38:41;30.20;58.30
9837;DHT22;4957;51.412;6.724;2023-09-07T14:41:10;30.20;58.60
9837;DHT22;4957;51.412;6.724;2023-09-07T14:43:41;30.10;58.60
9837;DHT22;4957;51.412;6.724;2023-09-07T14:46:07;30.10;58.90
9837;DHT22;4957;51.412;6.724;2023-09-07T14:48:32;30.10;59.10
9837;DHT22;4957;51.412;6.724;2023-09-07T14:50:58;30.00;59.20
9837;DHT22;4957;51.412;6.724;2023-09-07T14:53:24;30.00;59.20
9837;DHT22;4957;51.412;6.724;2023-09-07T14:55:49;30.00;59.40
9837;DHT22;4957;51.412;6.724;2023-09-07T14:58:15;30.00;59.40
9837;DHT22;4957;51.412;6.724;2023-09-07T15:00:41;30.00;59.30
9837;DHT22;4957;51.412;6.724;2023-09-07T15:03:06;30.00;59.10
9837;DHT22;4957;51.412;6.724;2023-09-07T15:05:32;29.90;58.80
9837;DHT22;4957;51.412;6.724;2023-09-07T15:07:57;29.90;59.10
9837;DHT22;4957;51.412;6.724;2023-09-07T15:10:25;29.90;59.20
9837;DHT22;4957;51.412;6.724;2023-09-07T15:12:52;29.90;59.20
9837;DHT22;4957;51.412;6.724;2023-09-07T15:15:19;29.80;59.00
9837;DHT22;4957;51.412;6.724;2023-09-07T15:17:47;29.80;59.10
9837;DHT22;4957;51.412;6.724;2023-09-07T15:20:13;29.80;59.10
9837;DHT22;4957;51.412;6.724;2023-09-07T15:22:39;29.80;59.10
9837;DHT22;4957;51.412;6.724;2023-09-07T15:25:05;29.80;59.10
9837;DHT22;4957;51.412;6.724;2023-09-07T15:27:31;29.70;59.00
9837;DHT22;4957;51.412;6.724;2023-09-07T15:29:56;29.80;59.20
9837;DHT22;4957;51.412;6.724;2023-09-07T15:32:22;29.70;59.20
9837;DHT22;4957;51.412;6.724;2023-09-07T15:34:48;29.70;59.30
9837;DHT22;4957;51.412;6.724;2023-09-07T15:37:14;29.70;59.30
9837;DHT22;4957;51.412;6.724;2023-09-07T15:39:40;29.70;59.20
9837;DHT22;4957;51.412;6.724;2023-09-07T15:42:11;29.60;58.90
9837;DHT22;4957;51.412;6.724;2023-09-07T15:44:36;29.60;58.90
9837;DHT22;4957;51.412;6.724;2023-09-07T15:47:02;29.60;59.10
9837;DHT22;4957;51.412;6.724;2023-09-07T15:49:28;29.60;59.40
9837;DHT22;4957;51.412;6.724;2023-09-07T15:51:54;29.60;59.60
9837;DHT22;4957;51.412;6.724;2023-09-07T15:54:19;29.60;59.60
9837;DHT22;4957;51.412;6.724;2023-09-07T15:56:45;29.50;59.50
9837;DHT22;4957;51.412;6.724;2023-09-07T15:59:11;29.50;59.70